sensor_id;sensor_type;location;lat;lon;timestamp;P1;durP1;ratioP1;P2;durP2;ratioP2
41923;SDS011;27613;48.116;11.656;2023-02-18T00:01:43;3.38;;;2.15;;
41923;SDS011;27613;48.116;11.656;2023-02-18T00:04:09;2.65;;;1.90;;
41923;SDS011;27613;48.116;11.656;2023-02-18T00:06:35;5.00;;;1.95;;
41923;SDS011;27613;48.116;11.656;2023-02-18T00:09:01;5.15;;;2.05;;
41923;SDS011;27613;48.116;11.656;2023-02-18T00:11:30;3.65;;;2.03;;
41923;SDS011;27613;48.116;11.656;2023-02-18T00:13:58;3.65;;;1.75;;
41923;SDS011;27613;48.116;11.656;2023-02-18T00:16:25;3.33;;;1.83;;
41923;SDS011;27613;48.116;11.656;2023-02-18T00:18:56;2.85;;;1.95;;
41923;SDS011;27613;48.116;11.656;2023-02-18T00:21:23;4.78;;;2.22;;
41923;SDS011;27613;48.116;11.656;2023-02-18T00:23:49;3.08;;;1.90;;
41923;SDS011;27613;48.116;11.656;2023-02-18T00:26:15;3.28;;;1.80;;
41923;SDS011;27613;48.116;11.656;2023-02-18T00:28:42;3.50;;;2.00;;
41923;SDS011;27613;48.116;11.656;2023-02-18T00:31:12;2.90;;;2.05;;
41923;SDS011;27613;48.116;11.656;2023-02-18T00:33:39;3.65;;;1.83;;
41923;SDS011;27613;48.116;11.656;2023-02-18T00:36:07;3.00;;;1.73;;
41923;SDS011;27613;48.116;11.656;2023-02-18T00:38:34;2.72;;;1.70;;
41923;SDS011;27613;48.116;11.656;2023-02-18T00:40:59;4.93;;;2.03;;
41923;SDS011;27613;48.116;11.656;2023-02-18T00:43:25;3.20;;;1.70;;
41923;SDS011;27613;48.116;11.656;2023-02-18T00:45:51;4.00;;;1.80;;
41923;SDS011;27613;48.116;11.656;2023-02-18T00:48:17;3.53;;;1.92;;
41923;SDS011;27613;48.116;11.656;2023-02-18T00:50:43;2.55;;;1.80;;
41923;SDS011;27613;48.116;11.656;2023-02-18T00:53:08;2.60;;;1.50;;
41923;SDS011;27613;48.116;11.656;2023-02-18T00:55:38;5.03;;;2.00;;
41923;SDS011;27613;48.116;11.656;2023-02-18T00:58:07;3.10;;;1.60;;
41923;SDS011;27613;48.116;11.656;2023-02-18T01:00:33;4.05;;;2.08;;
41923;SDS011;27613;48.116;11.656;2023-02-18T01:02:59;4.22;;;1.83;;
41923;SDS011;27613;48.116;11.656;2023-02-18T01:05:25;3.40;;;1.67;;
41923;SDS011;27613;48.116;11.656;2023-02-18T01:07:50;6.22;;;2.25;;
41923;SDS011;27613;48.116;11.656;2023-02-18T01:10:16;5.60;;;2.00;;
41923;SDS011;27613;48.116;11.656;2023-02-18T01:12:41;3.45;;;1.98;;
41923;SDS011;27613;48.116;11.656;2023-02-18T01:15:07;3.03;;;1.65;;
41923;SDS011;27613;48.116;11.656;2023-02-18T01:17:33;3.58;;;1.85;;
41923;SDS011;27613;48.116;11.656;2023-02-18T01:19:59;2.22;;;1.48;;
41923;SDS011;27613;48.116;11.656;2023-02-18T01:22:25;1.98;;;1.52;;
41923;SDS011;27613;48.116;11.656;2023-02-18T01:24:50;2.78;;;1.65;;
41923;SDS011;27613;48.116;11.656;2023-02-18T01:27:16;3.30;;;2.00;;
41923;SDS011;27613;48.116;11.656;2023-02-18T01:29:41;2.53;;;1.67;;
41923;SDS011;27613;48.116;11.656;2023-02-18T01:32:07;3.33;;;1.98;;
41923;SDS011;27613;48.116;11.656;2023-02-18T01:34:33;3.25;;;1.70;;
41923;SDS011;27613;48.116;11.656;2023-02-18T01:36:58;3.47;;;1.80;;
41923;SDS011;27613;48.116;11.656;2023-02-18T01:39:24;2.45;;;1.65;;
41923;SDS011;27613;48.116;11.656;2023-02-18T01:41:49;2.35;;;1.90;;
41923;SDS011;27613;48.116;11.656;2023-02-18T01:44:24;4.63;;;1.90;;
41923;SDS011;27613;48.116;11.656;2023-02-18T01:46:52;4.82;;;2.28;;
41923;SDS011;27613;48.116;11.656;2023-02-18T01:49:37;4.50;;;2.00;;
41923;SDS011;27613;48.116;11.656;2023-02-18T01:52:36;9.52;;;2.33;;
41923;SDS011;27613;48.116;11.656;2023-02-18T01:54:57;6.75;;;2.28;;
41923;SDS011;27613;48.116;11.656;2023-02-18T01:57:23;3.08;;;1.88;;
41923;SDS011;27613;48.116;11.656;2023-02-18T02:00:07;4.70;;;2.22;;
41923;SDS011;27613;48.116;11.656;2023-02-18T02:02:39;3.30;;;2.00;;
41923;SDS011;27613;48.116;11.656;2023-02-18T02:05:09;3.50;;;2.15;;
41923;SDS011;27613;48.116;11.656;2023-02-18T02:07:35;3.17;;;1.88;;
41923;SDS011;27613;48.116;11.656;2023-02-18T02:10:01;5.72;;;1.90;;
41923;SDS011;27613;48.116;11.656;2023-02-18T02:12:52;3.20;;;2.05;;
41923;SDS011;27613;48.116;11.656;2023-02-18T02:35:06;4.05;;;1.77;;
41923;SDS011;27613;48.116;11.656;2023-02-18T02:37:35;2.53;;;1.60;;
41923;SDS011;27613;48.116;11.656;2023-02-18T02:40:23;3.20;;;1.90;;
41923;SDS011;27613;48.116;11.656;2023-02-18T02:45:46;3.05;;;1.60;;
41923;SDS011;27613;48.116;11.656;2023-02-18T02:48:31;2.10;;;1.35;;
41923;SDS011;27613;48.116;11.656;2023-02-18T02:51:20;2.97;;;1.65;;
41923;SDS011;27613;48.116;11.656;2023-02-18T02:53:48;4.75;;;1.90;;
41923;SDS011;27613;48.116;11.656;2023-02-18T02:56:15;2.03;;;1.50;;
41923;SDS011;27613;48.116;11.656;2023-02-18T02:58:56;2.28;;;1.50;;
41923;SDS011;27613;48.116;11.656;2023-02-18T03:12:07;2.78;;;1.60;;
41923;SDS011;27613;48.116;11.656;2023-02-18T03:14:44;4.80;;;1.40;;
41923;SDS011;27613;48.116;11.656;2023-02-18T03:17:24;2.28;;;1.23;;
41923;SDS011;27613;48.116;11.656;2023-02-18T03:19:55;1.50;;;1.20;;
41923;SDS011;27613;48.116;11.656;2023-02-18T03:22:32;1.42;;;1.15;;
41923;SDS011;27613;48.116;11.656;2023-02-18T03:25:08;1.77;;;1.05;;
41923;SDS011;27613;48.116;11.656;2023-02-18T03:28:19;1.42;;;1.13;;
41923;SDS011;27613;48.116;11.656;2023-02-18T03:30:27;1.13;;;0.90;;
41923;SDS011;27613;48.116;11.656;2023-02-18T03:32:59;2.10;;;1.17;;
41923;SDS011;27613;48.116;11.656;2023-02-18T03:35:28;2.50;;;1.17;;
41923;SDS011;27613;48.116;11.656;2023-02-18T03:40:48;2.58;;;1.50;;
41923;SDS011;27613;48.116;11.656;2023-02-18T03:43:14;1.33;;;1.00;;
41923;SDS011;27613;48.116;11.656;2023-02-18T03:45:40;1.80;;;1.25;;
41923;SDS011;27613;48.116;11.656;2023-02-18T03:48:05;1.90;;;1.10;;
41923;SDS011;27613;48.116;11.656;2023-02-18T03:50:31;2.35;;;1.25;;
41923;SDS011;27613;48.116;11.656;2023-02-18T03:52:57;2.38;;;1.20;;
41923;SDS011;27613;48.116;11.656;2023-02-18T03:55:22;3.92;;;1.50;;
41923;SDS011;27613;48.116;11.656;2023-02-18T03:57:48;2.35;;;1.40;;
41923;SDS011;27613;48.116;11.656;2023-02-18T04:00:13;1.85;;;1.40;;
41923;SDS011;27613;48.116;11.656;2023-02-18T04:02:39;1.60;;;1.10;;
41923;SDS011;27613;48.116;11.656;2023-02-18T04:05:05;1.65;;;1.23;;
41923;SDS011;27613;48.116;11.656;2023-02-18T04:07:31;1.83;;;1.17;;
41923;SDS011;27613;48.116;11.656;2023-02-18T04:09:57;2.08;;;1.40;;
41923;SDS011;27613;48.116;11.656;2023-02-18T04:12:22;2.35;;;1.15;;
41923;SDS011;27613;48.116;11.656;2023-02-18T04:14:48;2.30;;;1.52;;
41923;SDS011;27613;48.116;11.656;2023-02-18T04:17:13;2.10;;;1.42;;
41923;SDS011;27613;48.116;11.656;2023-02-18T04:19:39;2.45;;;1.35;;
41923;SDS011;27613;48.116;11.656;2023-02-18T04:22:04;2.08;;;1.25;;
41923;SDS011;27613;48.116;11.656;2023-02-18T04:24:30;2.08;;;1.50;;
41923;SDS011;27613;48.116;11.656;2023-02-18T04:26:55;2.58;;;1.50;;
41923;SDS011;27613;48.116;11.656;2023-02-18T04:29:21;1.88;;;1.25;;
41923;SDS011;27613;48.116;11.656;2023-02-18T04:31:46;2.05;;;1.42;;
41923;SDS011;27613;48.116;11.656;2023-02-18T04:34:12;2.45;;;1.50;;
41923;SDS011;27613;48.116;11.656;2023-02-18T04:36:37;2.33;;;1.50;;
41923;SDS011;27613;48.116;11.656;2023-02-18T04:39:03;2.13;;;1.40;;
41923;SDS011;27613;48.116;11.656;2023-02-18T04:41:28;2.03;;;1.13;;
41923;SDS011;27613;48.116;11.656;2023-02-18T04:43:54;2.30;;;1.60;;
41923;SDS011;27613;48.116;11.656;2023-02-18T04:46:20;2.28;;;1.50;;
41923;SDS011;27613;48.116;11.656;2023-02-18T04:48:45;2.33;;;1.42;;
41923;SDS011;27613;48.116;11.656;2023-02-18T04:51:11;2.42;;;1.40;;
41923;SDS011;27613;48.116;11.656;2023-02-18T04:53:36;1.50;;;1.13;;
41923;SDS011;27613;48.116;11.656;2023-02-18T04:56:02;2.15;;;1.20;;
41923;SDS011;27613;48.116;11.656;2023-02-18T04:58:28;2.15;;;1.20;;
41923;SDS011;27613;48.116;11.656;2023-02-18T05:00:57;3.35;;;1.60;;
41923;SDS011;27613;48.116;11.656;2023-02-18T05:03:23;1.35;;;1.10;;
41923;SDS011;27613;48.116;11.656;2023-02-18T05:05:49;1.80;;;1.40;;
41923;SDS011;27613;48.116;11.656;2023-02-18T05:08:14;2.05;;;1.20;;
41923;SDS011;27613;48.116;11.656;2023-02-18T05:10:40;1.27;;;1.00;;
41923;SDS011;27613;48.116;11.656;2023-02-18T05:13:05;1.90;;;1.20;;
41923;SDS011;27613;48.116;11.656;2023-02-18T05:15:31;1.50;;;1.10;;
41923;SDS011;27613;48.116;11.656;2023-02-18T05:17:57;2.22;;;1.20;;
41923;SDS011;27613;48.116;11.656;2023-02-18T05:20:22;1.83;;;1.30;;
41923;SDS011;27613;48.116;11.656;2023-02-18T05:22:48;1.95;;;1.20;;
41923;SDS011;27613;48.116;11.656;2023-02-18T05:25:13;1.45;;;1.00;;
41923;SDS011;27613;48.116;11.656;2023-02-18T05:27:39;1.27;;;0.98;;
41923;SDS011;27613;48.116;11.656;2023-02-18T05:30:05;1.65;;;1.20;;
41923;SDS011;27613;48.116;11.656;2023-02-18T05:32:32;1.73;;;1.23;;
41923;SDS011;27613;48.116;11.656;2023-02-18T05:34:57;2.33;;;0.98;;
41923;SDS011;27613;48.116;11.656;2023-02-18T05:37:23;1.92;;;1.08;;
41923;SDS011;27613;48.116;11.656;2023-02-18T05:39:48;1.95;;;1.20;;
41923;SDS011;27613;48.116;11.656;2023-02-18T05:42:14;1.63;;;1.20;;
41923;SDS011;27613;48.116;11.656;2023-02-18T05:44:39;1.00;;;0.80;;
41923;SDS011;27613;48.116;11.656;2023-02-18T05:47:06;0.82;;;0.65;;
41923;SDS011;27613;48.116;11.656;2023-02-18T05:49:33;0.70;;;0.60;;
41923;SDS011;27613;48.116;11.656;2023-02-18T05:51:59;0.80;;;0.80;;
41923;SDS011;27613;48.116;11.656;2023-02-18T05:54:25;1.35;;;0.80;;
41923;SDS011;27613;48.116;11.656;2023-02-18T05:56:51;0.65;;;0.60;;
41923;SDS011;27613;48.116;11.656;2023-02-18T05:59:17;0.60;;;0.60;;
41923;SDS011;27613;48.116;11.656;2023-02-18T06:01:44;0.73;;;0.60;;
41923;SDS011;27613;48.116;11.656;2023-02-18T06:04:09;0.45;;;0.45;;
41923;SDS011;27613;48.116;11.656;2023-02-18T06:06:35;2.05;;;0.80;;
41923;SDS011;27613;48.116;11.656;2023-02-18T06:09:01;1.10;;;0.63;;
41923;SDS011;27613;48.116;11.656;2023-02-18T06:11:28;1.20;;;0.60;;
41923;SDS011;27613;48.116;11.656;2023-02-18T06:13:53;0.88;;;0.77;;
41923;SDS011;27613;48.116;11.656;2023-02-18T06:16:19;1.20;;;0.77;;
41923;SDS011;27613;48.116;11.656;2023-02-18T06:18:44;0.68;;;0.65;;
41923;SDS011;27613;48.116;11.656;2023-02-18T06:21:09;1.25;;;0.75;;
41923;SDS011;27613;48.116;11.656;2023-02-18T06:23:35;0.85;;;0.80;;
41923;SDS011;27613;48.116;11.656;2023-02-18T06:26:00;0.60;;;0.50;;
41923;SDS011;27613;48.116;11.656;2023-02-18T06:28:26;0.90;;;0.57;;
41923;SDS011;27613;48.116;11.656;2023-02-18T06:30:52;2.67;;;1.23;;
41923;SDS011;27613;48.116;11.656;2023-02-18T06:33:17;1.10;;;0.80;;
41923;SDS011;27613;48.116;11.656;2023-02-18T06:35:51;0.73;;;0.73;;
41923;SDS011;27613;48.116;11.656;2023-02-18T06:38:21;1.85;;;1.00;;
41923;SDS011;27613;48.116;11.656;2023-02-18T06:40:46;1.33;;;0.85;;
41923;SDS011;27613;48.116;11.656;2023-02-18T06:43:12;1.30;;;0.98;;
41923;SDS011;27613;48.116;11.656;2023-02-18T06:45:38;2.58;;;0.82;;
41923;SDS011;27613;48.116;11.656;2023-02-18T06:48:04;1.33;;;0.82;;
41923;SDS011;27613;48.116;11.656;2023-02-18T06:50:29;1.00;;;0.60;;
41923;SDS011;27613;48.116;11.656;2023-02-18T06:52:55;0.85;;;0.65;;
41923;SDS011;27613;48.116;11.656;2023-02-18T06:55:21;0.60;;;0.60;;
41923;SDS011;27613;48.116;11.656;2023-02-18T06:57:46;0.70;;;0.52;;
41923;SDS011;27613;48.116;11.656;2023-02-18T07:00:12;0.63;;;0.52;;
41923;SDS011;27613;48.116;11.656;2023-02-18T07:02:38;1.20;;;0.77;;
41923;SDS011;27613;48.116;11.656;2023-02-18T07:05:04;1.08;;;0.60;;
41923;SDS011;27613;48.116;11.656;2023-02-18T07:07:29;1.35;;;0.60;;
41923;SDS011;27613;48.116;11.656;2023-02-18T07:09:55;1.15;;;0.63;;
41923;SDS011;27613;48.116;11.656;2023-02-18T07:12:21;0.68;;;0.55;;
41923;SDS011;27613;48.116;11.656;2023-02-18T07:14:46;1.23;;;0.75;;
41923;SDS011;27613;48.116;11.656;2023-02-18T07:17:12;1.25;;;0.90;;
41923;SDS011;27613;48.116;11.656;2023-02-18T07:19:38;1.85;;;0.90;;
41923;SDS011;27613;48.116;11.656;2023-02-18T07:22:03;0.60;;;0.52;;
41923;SDS011;27613;48.116;11.656;2023-02-18T07:24:29;0.55;;;0.55;;
41923;SDS011;27613;48.116;11.656;2023-02-18T07:26:54;0.98;;;0.70;;
41923;SDS011;27613;48.116;11.656;2023-02-18T07:29:20;0.77;;;0.60;;
41923;SDS011;27613;48.116;11.656;2023-02-18T07:31:45;0.90;;;0.60;;
41923;SDS011;27613;48.116;11.656;2023-02-18T07:34:11;0.60;;;0.50;;
41923;SDS011;27613;48.116;11.656;2023-02-18T07:36:36;0.95;;;0.38;;
41923;SDS011;27613;48.116;11.656;2023-02-18T07:39:02;0.40;;;0.40;;
41923;SDS011;27613;48.116;11.656;2023-02-18T07:41:28;1.23;;;0.50;;
41923;SDS011;27613;48.116;11.656;2023-02-18T07:43:53;2.70;;;0.60;;
41923;SDS011;27613;48.116;11.656;2023-02-18T07:46:19;0.65;;;0.50;;
41923;SDS011;27613;48.116;11.656;2023-02-18T07:48:44;0.98;;;0.57;;
41923;SDS011;27613;48.116;11.656;2023-02-18T07:51:10;0.85;;;0.60;;
41923;SDS011;27613;48.116;11.656;2023-02-18T07:53:37;0.57;;;0.50;;
41923;SDS011;27613;48.116;11.656;2023-02-18T07:56:03;1.10;;;0.65;;
41923;SDS011;27613;48.116;11.656;2023-02-18T07:58:30;1.52;;;0.68;;
41923;SDS011;27613;48.116;11.656;2023-02-18T08:00:58;0.43;;;0.40;;
41923;SDS011;27613;48.116;11.656;2023-02-18T08:03:24;0.80;;;0.60;;
41923;SDS011;27613;48.116;11.656;2023-02-18T08:05:52;0.93;;;0.70;;
41923;SDS011;27613;48.116;11.656;2023-02-18T08:08:20;2.30;;;0.63;;
41923;SDS011;27613;48.116;11.656;2023-02-18T08:10:48;0.73;;;0.60;;
41923;SDS011;27613;48.116;11.656;2023-02-18T08:13:14;0.77;;;0.73;;
41923;SDS011;27613;48.116;11.656;2023-02-18T08:15:40;0.90;;;0.63;;
41923;SDS011;27613;48.116;11.656;2023-02-18T08:18:06;1.10;;;0.70;;
41923;SDS011;27613;48.116;11.656;2023-02-18T08:20:36;0.85;;;0.70;;
41923;SDS011;27613;48.116;11.656;2023-02-18T08:23:02;0.70;;;0.60;;
41923;SDS011;27613;48.116;11.656;2023-02-18T08:25:28;0.60;;;0.52;;
41923;SDS011;27613;48.116;11.656;2023-02-18T08:27:54;2.10;;;0.75;;
41923;SDS011;27613;48.116;11.656;2023-02-18T08:30:19;2.00;;;0.60;;
41923;SDS011;27613;48.116;11.656;2023-02-18T08:32:45;1.35;;;0.65;;
41923;SDS011;27613;48.116;11.656;2023-02-18T08:35:12;0.65;;;0.60;;
41923;SDS011;27613;48.116;11.656;2023-02-18T08:37:38;4.93;;;0.90;;
41923;SDS011;27613;48.116;11.656;2023-02-18T08:40:04;1.30;;;0.70;;
41923;SDS011;27613;48.116;11.656;2023-02-18T08:42:30;1.55;;;0.82;;
41923;SDS011;27613;48.116;11.656;2023-02-18T08:44:55;4.47;;;0.70;;
41923;SDS011;27613;48.116;11.656;2023-02-18T08:47:21;1.15;;;0.65;;
41923;SDS011;27613;48.116;11.656;2023-02-18T08:49:46;0.47;;;0.40;;
41923;SDS011;27613;48.116;11.656;2023-02-18T08:52:12;3.97;;;0.82;;
41923;SDS011;27613;48.116;11.656;2023-02-18T08:54:38;7.90;;;0.95;;
41923;SDS011;27613;48.116;11.656;2023-02-18T08:57:03;0.47;;;0.47;;
41923;SDS011;27613;48.116;11.656;2023-02-18T08:59:29;2.97;;;0.75;;
41923;SDS011;27613;48.116;11.656;2023-02-18T09:01:54;5.90;;;1.35;;
41923;SDS011;27613;48.116;11.656;2023-02-18T09:04:20;1.23;;;0.80;;
41923;SDS011;27613;48.116;11.656;2023-02-18T09:06:46;1.85;;;0.73;;
41923;SDS011;27613;48.116;11.656;2023-02-18T09:09:13;1.58;;;1.13;;
41923;SDS011;27613;48.116;11.656;2023-02-18T09:11:39;3.83;;;1.02;;
41923;SDS011;27613;48.116;11.656;2023-02-18T09:14:05;1.55;;;0.90;;
41923;SDS011;27613;48.116;11.656;2023-02-18T09:16:31;1.67;;;0.80;;
41923;SDS011;27613;48.116;11.656;2023-02-18T09:18:56;1.60;;;0.80;;
41923;SDS011;27613;48.116;11.656;2023-02-18T09:21:22;2.53;;;1.17;;
41923;SDS011;27613;48.116;11.656;2023-02-18T09:23:49;1.13;;;0.77;;
41923;SDS011;27613;48.116;11.656;2023-02-18T09:26:15;1.13;;;0.60;;
41923;SDS011;27613;48.116;11.656;2023-02-18T09:28:43;2.22;;;0.93;;
41923;SDS011;27613;48.116;11.656;2023-02-18T09:31:10;0.90;;;0.65;;
41923;SDS011;27613;48.116;11.656;2023-02-18T09:33:41;2.78;;;1.02;;
41923;SDS011;27613;48.116;11.656;2023-02-18T09:36:09;1.85;;;0.80;;
41923;SDS011;27613;48.116;11.656;2023-02-18T09:38:35;1.58;;;0.85;;
41923;SDS011;27613;48.116;11.656;2023-02-18T09:41:02;3.35;;;1.20;;
41923;SDS011;27613;48.116;11.656;2023-02-18T09:43:35;3.63;;;1.10;;
41923;SDS011;27613;48.116;11.656;2023-02-18T09:46:11;1.38;;;0.77;;
41923;SDS011;27613;48.116;11.656;2023-02-18T09:48:45;1.40;;;0.80;;
41923;SDS011;27613;48.116;11.656;2023-02-18T09:51:12;1.83;;;0.98;;
41923;SDS011;27613;48.116;11.656;2023-02-18T09:53:39;1.85;;;1.00;;
41923;SDS011;27613;48.116;11.656;2023-02-18T09:56:08;4.28;;;0.90;;
41923;SDS011;27613;48.116;11.656;2023-02-18T09:58:50;1.02;;;0.73;;
41923;SDS011;27613;48.116;11.656;2023-02-18T10:03:45;3.67;;;0.90;;
41923;SDS011;27613;48.116;11.656;2023-02-18T10:06:15;3.90;;;1.55;;
41923;SDS011;27613;48.116;11.656;2023-02-18T10:08:44;3.33;;;0.98;;
41923;SDS011;27613;48.116;11.656;2023-02-18T10:11:13;2.72;;;1.23;;
41923;SDS011;27613;48.116;11.656;2023-02-18T10:13:47;3.17;;;1.33;;
41923;SDS011;27613;48.116;11.656;2023-02-18T10:16:16;2.20;;;1.45;;
41923;SDS011;27613;48.116;11.656;2023-02-18T10:18:43;3.83;;;1.10;;
41923;SDS011;27613;48.116;11.656;2023-02-18T10:21:26;1.90;;;1.13;;
41923;SDS011;27613;48.116;11.656;2023-02-18T10:24:03;1.92;;;0.85;;
41923;SDS011;27613;48.116;11.656;2023-02-18T10:26:33;1.50;;;0.75;;
41923;SDS011;27613;48.116;11.656;2023-02-18T10:29:01;0.88;;;0.70;;
41923;SDS011;27613;48.116;11.656;2023-02-18T10:31:28;2.38;;;1.20;;
41923;SDS011;27613;48.116;11.656;2023-02-18T10:33:59;2.30;;;1.10;;
41923;SDS011;27613;48.116;11.656;2023-02-18T10:36:45;6.95;;;0.73;;
41923;SDS011;27613;48.116;11.656;2023-02-18T10:39:22;1.75;;;0.90;;
41923;SDS011;27613;48.116;11.656;2023-02-18T10:42:02;5.53;;;1.13;;
41923;SDS011;27613;48.116;11.656;2023-02-18T10:50:04;5.43;;;1.08;;
41923;SDS011;27613;48.116;11.656;2023-02-18T10:52:58;5.75;;;1.08;;
41923;SDS011;27613;48.116;11.656;2023-02-18T10:58:02;6.18;;;1.40;;
41923;SDS011;27613;48.116;11.656;2023-02-18T11:00:32;8.27;;;1.33;;
41923;SDS011;27613;48.116;11.656;2023-02-18T11:03:12;2.67;;;1.00;;
41923;SDS011;27613;48.116;11.656;2023-02-18T11:05:41;5.53;;;1.40;;
41923;SDS011;27613;48.116;11.656;2023-02-18T11:08:09;6.10;;;1.40;;
41923;SDS011;27613;48.116;11.656;2023-02-18T11:10:41;3.80;;;1.27;;
41923;SDS011;27613;48.116;11.656;2023-02-18T11:13:09;3.28;;;0.70;;
41923;SDS011;27613;48.116;11.656;2023-02-18T11:15:52;1.63;;;0.95;;
41923;SDS011;27613;48.116;11.656;2023-02-18T11:18:36;1.48;;;0.80;;
41923;SDS011;27613;48.116;11.656;2023-02-18T11:21:49;1.83;;;0.90;;
41923;SDS011;27613;48.116;11.656;2023-02-18T11:24:05;3.08;;;1.00;;
41923;SDS011;27613;48.116;11.656;2023-02-18T11:26:33;6.17;;;0.80;;
41923;SDS011;27613;48.116;11.656;2023-02-18T11:29:14;0.95;;;0.68;;
41923;SDS011;27613;48.116;11.656;2023-02-18T11:31:46;0.88;;;0.68;;
41923;SDS011;27613;48.116;11.656;2023-02-18T11:34:19;1.00;;;0.80;;
41923;SDS011;27613;48.116;11.656;2023-02-18T11:36:47;0.98;;;0.70;;
41923;SDS011;27613;48.116;11.656;2023-02-18T11:39:17;3.72;;;1.02;;
41923;SDS011;27613;48.116;11.656;2023-02-18T11:41:55;1.47;;;0.90;;
41923;SDS011;27613;48.116;11.656;2023-02-18T11:44:33;0.98;;;0.70;;
41923;SDS011;27613;48.116;11.656;2023-02-18T11:47:05;1.50;;;0.70;;
41923;SDS011;27613;48.116;11.656;2023-02-18T11:49:37;2.15;;;0.90;;
41923;SDS011;27613;48.116;11.656;2023-02-18T11:52:08;2.13;;;0.60;;
41923;SDS011;27613;48.116;11.656;2023-02-18T11:55:00;2.00;;;0.90;;
41923;SDS011;27613;48.116;11.656;2023-02-18T11:57:26;1.85;;;0.80;;
41923;SDS011;27613;48.116;11.656;2023-02-18T11:59:52;2.42;;;0.70;;
41923;SDS011;27613;48.116;11.656;2023-02-18T12:02:33;2.10;;;0.77;;
41923;SDS011;27613;48.116;11.656;2023-02-18T12:05:08;1.70;;;0.80;;
41923;SDS011;27613;48.116;11.656;2023-02-18T12:07:41;3.53;;;0.90;;
41923;SDS011;27613;48.116;11.656;2023-02-18T12:10:18;1.15;;;0.65;;
41923;SDS011;27613;48.116;11.656;2023-02-18T12:15:31;0.88;;;0.50;;
41923;SDS011;27613;48.116;11.656;2023-02-18T12:18:10;2.03;;;0.70;;
41923;SDS011;27613;48.116;11.656;2023-02-18T12:23:37;1.52;;;0.52;;
41923;SDS011;27613;48.116;11.656;2023-02-18T12:31:38;1.58;;;0.50;;
41923;SDS011;27613;48.116;11.656;2023-02-18T12:34:24;7.43;;;0.70;;
41923;SDS011;27613;48.116;11.656;2023-02-18T12:42:13;5.43;;;0.90;;
41923;SDS011;27613;48.116;11.656;2023-02-18T12:48:10;3.60;;;1.70;;
41923;SDS011;27613;48.116;11.656;2023-02-18T12:50:44;1.77;;;0.52;;
41923;SDS011;27613;48.116;11.656;2023-02-18T12:56:01;0.90;;;0.73;;
41923;SDS011;27613;48.116;11.656;2023-02-18T12:58:33;1.83;;;0.90;;
41923;SDS011;27613;48.116;11.656;2023-02-18T13:01:25;1.13;;;0.63;;
41923;SDS011;27613;48.116;11.656;2023-02-18T13:12:49;1.33;;;0.73;;
41923;SDS011;27613;48.116;11.656;2023-02-18T13:15:18;2.35;;;0.82;;
41923;SDS011;27613;48.116;11.656;2023-02-18T13:18:01;1.00;;;0.77;;
41923;SDS011;27613;48.116;11.656;2023-02-18T13:20:45;2.15;;;0.93;;
41923;SDS011;27613;48.116;11.656;2023-02-18T13:23:28;1.57;;;0.77;;
41923;SDS011;27613;48.116;11.656;2023-02-18T13:25:58;1.50;;;0.70;;
41923;SDS011;27613;48.116;11.656;2023-02-18T13:31:41;1.77;;;0.98;;
41923;SDS011;27613;48.116;11.656;2023-02-18T13:37:33;1.92;;;1.20;;
41923;SDS011;27613;48.116;11.656;2023-02-18T13:40:20;4.03;;;1.30;;
41923;SDS011;27613;48.116;11.656;2023-02-18T13:42:50;1.88;;;0.77;;
41923;SDS011;27613;48.116;11.656;2023-02-18T13:45:24;2.25;;;0.90;;
41923;SDS011;27613;48.116;11.656;2023-02-18T13:47:54;1.83;;;0.93;;
41923;SDS011;27613;48.116;11.656;2023-02-18T13:52:47;1.25;;;0.80;;
41923;SDS011;27613;48.116;11.656;2023-02-18T13:55:17;7.88;;;1.27;;
41923;SDS011;27613;48.116;11.656;2023-02-18T13:57:46;1.73;;;0.80;;
41923;SDS011;27613;48.116;11.656;2023-02-18T14:00:20;5.50;;;0.80;;
41923;SDS011;27613;48.116;11.656;2023-02-18T14:02:57;2.20;;;1.10;;
41923;SDS011;27613;48.116;11.656;2023-02-18T14:05:37;1.92;;;1.00;;
41923;SDS011;27613;48.116;11.656;2023-02-18T14:08:15;4.18;;;0.77;;
41923;SDS011;27613;48.116;11.656;2023-02-18T14:11:29;1.20;;;0.88;;
41923;SDS011;27613;48.116;11.656;2023-02-18T14:13:54;1.25;;;0.80;;
41923;SDS011;27613;48.116;11.656;2023-02-18T14:19:42;1.20;;;0.75;;
41923;SDS011;27613;48.116;11.656;2023-02-18T14:22:50;1.77;;;0.90;;
41923;SDS011;27613;48.116;11.656;2023-02-18T14:27:44;2.50;;;0.98;;
41923;SDS011;27613;48.116;11.656;2023-02-18T14:33:03;3.50;;;0.88;;
41923;SDS011;27613;48.116;11.656;2023-02-18T14:35:42;1.55;;;1.02;;
41923;SDS011;27613;48.116;11.656;2023-02-18T14:38:36;2.80;;;0.98;;
41923;SDS011;27613;48.116;11.656;2023-02-18T14:41:28;7.32;;;1.40;;
41923;SDS011;27613;48.116;11.656;2023-02-18T14:49:38;1.85;;;0.80;;
41923;SDS011;27613;48.116;11.656;2023-02-18T14:52:27;3.03;;;1.00;;
41923;SDS011;27613;48.116;11.656;2023-02-18T14:54:57;1.77;;;1.10;;
41923;SDS011;27613;48.116;11.656;2023-02-18T14:57:38;6.15;;;1.27;;
41923;SDS011;27613;48.116;11.656;2023-02-18T15:00:16;1.13;;;0.77;;
41923;SDS011;27613;48.116;11.656;2023-02-18T15:02:46;2.03;;;0.93;;
41923;SDS011;27613;48.116;11.656;2023-02-18T15:05:22;4.57;;;0.80;;
41923;SDS011;27613;48.116;11.656;2023-02-18T15:13:27;1.50;;;0.98;;
41923;SDS011;27613;48.116;11.656;2023-02-18T15:15:56;2.97;;;0.90;;
41923;SDS011;27613;48.116;11.656;2023-02-18T15:21:00;1.70;;;1.00;;
41923;SDS011;27613;48.116;11.656;2023-02-18T15:23:27;1.38;;;0.88;;
41923;SDS011;27613;48.116;11.656;2023-02-18T15:25:54;1.20;;;0.80;;
41923;SDS011;27613;48.116;11.656;2023-02-18T15:30:50;1.83;;;0.82;;
41923;SDS011;27613;48.116;11.656;2023-02-18T15:33:16;1.70;;;0.82;;
41923;SDS011;27613;48.116;11.656;2023-02-18T15:35:44;1.05;;;0.70;;
41923;SDS011;27613;48.116;11.656;2023-02-18T15:38:14;2.53;;;0.80;;
41923;SDS011;27613;48.116;11.656;2023-02-18T15:40:41;1.70;;;0.85;;
41923;SDS011;27613;48.116;11.656;2023-02-18T15:43:14;1.50;;;0.90;;
41923;SDS011;27613;48.116;11.656;2023-02-18T15:45:43;1.75;;;1.00;;
41923;SDS011;27613;48.116;11.656;2023-02-18T15:50:55;1.58;;;1.05;;
41923;SDS011;27613;48.116;11.656;2023-02-18T15:53:22;2.08;;;0.90;;
41923;SDS011;27613;48.116;11.656;2023-02-18T15:55:50;2.95;;;0.80;;
41923;SDS011;27613;48.116;11.656;2023-02-18T15:58:30;3.50;;;0.98;;
41923;SDS011;27613;48.116;11.656;2023-02-18T16:00:58;1.50;;;0.65;;
41923;SDS011;27613;48.116;11.656;2023-02-18T16:03:29;1.13;;;0.73;;
41923;SDS011;27613;48.116;11.656;2023-02-18T16:08:40;3.05;;;1.23;;
41923;SDS011;27613;48.116;11.656;2023-02-18T16:11:10;11.00;;;0.90;;
41923;SDS011;27613;48.116;11.656;2023-02-18T16:13:43;1.20;;;0.77;;
41923;SDS011;27613;48.116;11.656;2023-02-18T16:16:19;1.52;;;0.60;;
41923;SDS011;27613;48.116;11.656;2023-02-18T16:18:48;1.67;;;0.90;;
41923;SDS011;27613;48.116;11.656;2023-02-18T16:23:44;0.98;;;0.70;;
41923;SDS011;27613;48.116;11.656;2023-02-18T16:26:19;1.40;;;0.70;;
41923;SDS011;27613;48.116;11.656;2023-02-18T16:28:49;0.77;;;0.50;;
41923;SDS011;27613;48.116;11.656;2023-02-18T16:31:16;3.60;;;1.00;;
41923;SDS011;27613;48.116;11.656;2023-02-18T16:33:41;6.07;;;0.95;;
41923;SDS011;27613;48.116;11.656;2023-02-18T16:36:13;1.02;;;0.70;;
41923;SDS011;27613;48.116;11.656;2023-02-18T16:38:42;2.28;;;0.95;;
41923;SDS011;27613;48.116;11.656;2023-02-18T16:41:09;1.50;;;0.90;;
41923;SDS011;27613;48.116;11.656;2023-02-18T16:43:36;2.50;;;1.23;;
41923;SDS011;27613;48.116;11.656;2023-02-18T16:46:13;2.45;;;1.42;;
41923;SDS011;27613;48.116;11.656;2023-02-18T16:48:42;5.43;;;1.45;;